ONE weather

Santa Patricia Airport
Ciudad Obregon, Sonora, Mexico

Public forecast

Using degrees Celsius for public forecast. Weather courtesy of forecast.io.

METAR (pilot weather report)

Closest report is Ciudad Obregón International Airport, 14.1 nm (26.1 km) ESE. Retrieved 2019/06/16 17:43 UTC (14 minutes ago):

MMCN 161743Z 18006KT 10SM SKC 34/14 A2981 RMK SLP095 HZY

TAF (pilot weather forecast)

Forecast is more than 6 hours old.

Closest forecast is Ciudad Obregón International Airport, 14.1 nm (26.1 km) ESE. Retrieved 2019/06/16 06:51 UTC (11 hours ago):

TAF TAF MMCN 160449Z 1606/1706 23005KT P6SM SKC FM161900 20012KT P6SM SKC FM170300 23005KT P6SM SKC